Terminal Aerodrome Forecast
Issued by NWS

Home | Current Version | Previous Version | Text Only | Print | Product List | Glossary On
Versions: 1 2 3 4 5 6 7 8 9 10 11 12 13 14 15 16 17 18 19 20 21 22 23 24 25 26 27 28
000
FTUS42 KCAE 220822 AAA
TAFDNL
TAF AMD
KDNL 220822Z 2208/2306 VRB03KT P6SM SCT045 BKN250
      TEMPO 2208/2210 BKN045
     FM221600 10006KT P6SM BKN045
     FM230100 10003KT P6SM OVC015=

USA.gov is the U.S. government's official web portal to all federal, state and local government web resources and services.